createdAt,value
2022-08-01T00:01:18.015Z,101620.75
2022-08-01T00:03:47.683Z,101605.66
2022-08-01T00:06:16.072Z,101614.94
2022-08-01T00:08:44.335Z,101617.50
2022-08-01T00:11:12.914Z,101610.53
2022-08-01T00:13:41.258Z,101616.56
2022-08-01T00:16:09.983Z,101614.03
2022-08-01T00:18:38.247Z,101613.97
2022-08-01T00:21:08.000Z,101617.25
2022-08-01T00:23:36.366Z,101615.47
2022-08-01T00:26:04.734Z,101614.38
2022-08-01T00:28:33.026Z,101623.78
2022-08-01T00:31:01.582Z,101616.19
2022-08-01T00:33:29.889Z,101626.22
2022-08-01T00:35:58.130Z,101626.41
2022-08-01T00:38:27.799Z,101615.69
2022-08-01T00:40:56.081Z,101612.34
2022-08-01T00:43:24.411Z,101619.97
2022-08-01T00:45:52.751Z,101619.13
2022-08-01T00:48:21.054Z,101618.97
2022-08-01T00:50:49.678Z,101618.69
2022-08-01T00:53:18.892Z,101622.25
2022-08-01T00:55:49.820Z,101617.53
2022-08-01T00:58:18.104Z,101616.63
2022-08-01T01:00:52.658Z,101615.41
2022-08-01T01:03:43.538Z,101610.25
2022-08-01T01:06:27.169Z,101615.69
2022-08-01T01:09:23.013Z,101608.63
2022-08-01T01:12:05.228Z,101608.28
2022-08-01T01:14:45.678Z,101604.16
2022-08-01T01:17:17.785Z,101598.47
2022-08-01T01:20:10.549Z,101605.13
2022-08-01T01:22:56.166Z,101598.88
2022-08-01T01:25:48.943Z,101605.59
2022-08-01T01:28:28.594Z,101613.59
2022-08-01T01:31:00.561Z,101618.84
2022-08-01T01:33:32.810Z,101595.44
2022-08-01T01:36:11.476Z,101601.06
2022-08-01T01:38:44.678Z,101608.50
2022-08-01T01:41:15.356Z,101611.81
2022-08-01T01:43:43.629Z,101607.38
2022-08-01T01:46:14.875Z,101613.59
2022-08-01T01:48:47.224Z,101613.59
2022-08-01T01:51:17.417Z,101618.19
2022-08-01T01:53:47.427Z,101561.09
2022-08-01T01:56:18.472Z,101619.16
2022-08-01T01:58:47.978Z,101620.84
2022-08-01T02:01:58.632Z,101625.44
2022-08-01T02:04:07.867Z,101619.53
2022-08-01T02:06:36.726Z,101620.31
2022-08-01T02:09:05.488Z,101620.47
2022-08-01T02:11:34.251Z,101616.28
2022-08-01T02:14:05.466Z,101619.44
2022-08-01T02:16:39.263Z,101622.72
2022-08-01T02:19:07.709Z,101622.50
2022-08-01T02:21:42.370Z,101617.09
2022-08-01T02:24:17.138Z,101623.75
2022-08-01T02:26:51.768Z,101612.78
2022-08-01T02:29:28.944Z,101617.63
2022-08-01T02:32:00.207Z,101626.44
2022-08-01T02:34:32.972Z,101631.31
2022-08-01T02:37:02.660Z,101633.28
2022-08-01T02:39:32.592Z,101615.66
2022-08-01T02:42:07.791Z,101606.22
2022-08-01T02:44:40.812Z,101601.81
2022-08-01T02:47:11.303Z,101616.28
2022-08-01T02:49:46.182Z,101624.34
2022-08-01T02:52:17.672Z,101624.16
2022-08-01T02:54:49.471Z,101626.13
2022-08-01T02:57:20.239Z,101629.19
2022-08-01T02:59:51.803Z,101618.09
2022-08-01T03:02:21.785Z,101631.19
2022-08-01T03:04:56.618Z,101630.25
2022-08-01T03:07:34.411Z,101629.41
2022-08-01T03:10:08.510Z,101623.38
2022-08-01T03:12:38.372Z,101628.63
2022-08-01T03:15:09.008Z,101627.25
2022-08-01T03:17:42.814Z,101631.13
2022-08-01T03:20:16.420Z,101625.41
2022-08-01T03:22:46.156Z,101629.13
2022-08-01T03:25:16.138Z,101624.09
2022-08-01T03:27:47.845Z,101632.75
2022-08-01T03:30:16.839Z,101638.88
2022-08-01T03:32:47.156Z,101634.53
2022-08-01T03:35:15.481Z,101629.38
2022-08-01T03:38:13.436Z,101640.78
2022-08-01T03:40:41.633Z,101634.69
2022-08-01T03:43:18.170Z,101639.63
2022-08-01T03:45:51.857Z,101641.97
2022-08-01T03:48:30.175Z,101641.03
2022-08-01T03:51:00.572Z,101636.88
2022-08-01T03:53:33.234Z,101632.47
2022-08-01T03:56:04.746Z,101632.97
2022-08-01T03:58:33.394Z,101628.13
2022-08-01T04:01:01.893Z,101628.63
2022-08-01T04:03:31.770Z,101631.09
2022-08-01T04:06:00.110Z,101628.84
2022-08-01T04:08:37.697Z,101635.22
2022-08-01T04:11:06.162Z,101636.94
2022-08-01T04:13:37.078Z,101630.88
2022-08-01T04:16:07.557Z,101645.41
2022-08-01T04:18:37.172Z,101641.44
2022-08-01T04:21:05.622Z,101641.34
2022-08-01T04:23:36.564Z,101648.25
2022-08-01T04:26:06.690Z,101646.25
2022-08-01T04:28:38.655Z,101639.34
2022-08-01T04:31:12.277Z,101635.69
2022-08-01T04:33:47.427Z,101614.13
2022-08-01T04:36:17.387Z,101636.19
2022-08-01T04:38:51.459Z,101646.38
2022-08-01T04:41:21.077Z,101637.31
2022-08-01T04:43:49.875Z,101651.59
2022-08-01T04:46:18.673Z,101651.00
2022-08-01T04:48:49.498Z,101650.78
2022-08-01T04:51:22.932Z,101655.13
2022-08-01T04:53:52.598Z,101626.47
2022-08-01T04:56:22.146Z,101654.59
2022-08-01T04:59:13.824Z,101662.97
2022-08-01T05:01:52.415Z,101655.75
2022-08-01T05:04:22.206Z,101659.19
2022-08-01T05:06:50.565Z,101660.84
2022-08-01T05:09:18.990Z,101667.44
2022-08-01T05:11:47.357Z,101658.47
2022-08-01T05:14:15.638Z,101655.03
2022-08-01T05:16:43.920Z,101653.78
2022-08-01T05:19:12.292Z,101664.25
2022-08-01T05:21:41.864Z,101663.44
2022-08-01T05:24:10.214Z,101649.31
2022-08-01T05:26:38.870Z,101658.75
2022-08-01T05:29:07.339Z,101662.25
2022-08-01T05:31:36.065Z,101650.94
2022-08-01T05:34:04.820Z,101663.13
2022-08-01T05:36:33.104Z,101669.19
2022-08-01T05:39:02.745Z,101662.66
2022-08-01T05:41:31.014Z,101670.66
2022-08-01T05:43:59.347Z,101666.03
2022-08-01T05:46:27.920Z,101677.28
2022-08-01T05:48:56.294Z,101674.06
2022-08-01T05:51:24.696Z,101674.91
2022-08-01T05:53:53.250Z,101682.34
2022-08-01T05:56:23.690Z,101682.69
2022-08-01T05:58:52.750Z,101679.63
2022-08-01T06:01:22.015Z,101672.66
2022-08-01T06:03:50.261Z,101697.50
2022-08-01T06:06:18.740Z,101691.50
2022-08-01T06:08:53.853Z,101697.53
2022-08-01T06:11:23.460Z,101701.97
2022-08-01T06:13:51.769Z,101702.50
2022-08-01T06:16:20.033Z,101694.50
2022-08-01T06:18:48.340Z,101702.50
2022-08-01T06:21:16.654Z,101697.13
2022-08-01T06:23:44.949Z,101698.78
2022-08-01T06:26:13.254Z,101700.38
2022-08-01T06:28:42.920Z,101708.31
2022-08-01T06:31:13.544Z,101707.19
2022-08-01T06:33:41.729Z,101708.25
2022-08-01T06:36:10.192Z,101712.47
2022-08-01T06:38:39.576Z,101712.72
2022-08-01T06:41:07.947Z,101714.88
2022-08-01T06:43:36.225Z,101713.81
2022-08-01T06:46:06.357Z,101720.34
2022-08-01T06:48:36.317Z,101732.03
2022-08-01T06:51:10.362Z,101727.22
2022-08-01T06:53:40.420Z,101725.72
2022-08-01T06:56:10.614Z,101699.34
2022-08-01T06:58:39.227Z,101731.69
2022-08-01T07:01:09.284Z,101731.56
2022-08-01T07:03:52.400Z,101735.91
2022-08-01T07:06:24.779Z,101742.59
2022-08-01T07:08:53.419Z,101730.75
2022-08-01T07:11:22.231Z,101746.56
2022-08-01T07:13:50.834Z,101747.44
2022-08-01T07:16:20.751Z,101740.19
2022-08-01T07:18:49.106Z,101750.66
2022-08-01T07:21:40.389Z,101744.91
2022-08-01T07:24:12.004Z,101742.47
2022-08-01T07:26:52.429Z,101744.34
2022-08-01T07:29:24.808Z,101754.88
2022-08-01T07:31:55.522Z,101750.19
2022-08-01T07:34:24.859Z,101763.53
2022-08-01T07:36:53.534Z,101750.88
2022-08-01T07:39:21.904Z,101752.53
2022-08-01T07:42:04.631Z,101743.75
2022-08-01T07:44:36.466Z,101726.91
2022-08-01T07:47:06.871Z,101766.63
2022-08-01T07:49:39.867Z,101765.13
2022-08-01T07:52:09.863Z,101764.06
2022-08-01T07:54:38.195Z,101763.38
2022-08-01T07:57:06.631Z,101764.88
2022-08-01T07:59:34.991Z,101765.56
2022-08-01T08:02:03.620Z,101776.09
2022-08-01T08:04:33.405Z,101773.97
2022-08-01T08:07:01.685Z,101749.47
2022-08-01T08:09:30.014Z,101778.91
2022-08-01T08:11:58.585Z,101779.34
2022-08-01T08:14:32.551Z,101781.00
2022-08-01T08:17:01.863Z,101791.47
2022-08-01T08:19:37.658Z,101795.63
2022-08-01T08:22:08.197Z,101780.91
2022-08-01T08:24:36.992Z,101741.88
2022-08-01T08:27:14.342Z,101798.69
2022-08-01T08:29:42.838Z,101800.50
2022-08-01T08:32:11.574Z,101788.06
2022-08-01T08:34:41.263Z,101748.34
2022-08-01T08:37:09.986Z,101796.97
2022-08-01T08:39:42.042Z,101801.88
2022-08-01T08:42:11.912Z,101801.78
2022-08-01T08:44:43.664Z,101807.47
2022-08-01T08:47:19.658Z,101806.38
2022-08-01T08:49:56.076Z,101811.78
2022-08-01T08:52:25.187Z,101817.84
2022-08-01T08:54:54.615Z,101809.16
2022-08-01T08:57:23.714Z,101816.91
2022-08-01T08:59:55.095Z,101800.38
2022-08-01T09:02:23.614Z,101819.63
2022-08-01T09:04:54.216Z,101823.25
2022-08-01T09:07:23.826Z,101826.66
2022-08-01T09:09:52.681Z,101822.84
2022-08-01T09:12:22.273Z,101831.09
2022-08-01T09:14:54.403Z,101829.06
2022-08-01T09:17:23.297Z,101834.31
2022-08-01T09:19:57.770Z,101831.06
2022-08-01T09:22:27.799Z,101828.44
2022-08-01T09:25:02.384Z,101834.78
2022-08-01T09:27:31.770Z,101841.09
2022-08-01T09:30:12.595Z,101834.69
2022-08-01T09:32:56.829Z,101827.97
2022-08-01T09:35:31.808Z,101831.00
2022-08-01T09:38:17.855Z,101840.94
2022-08-01T09:40:52.847Z,101832.66
2022-08-01T09:43:23.783Z,101846.53
2022-08-01T09:45:53.711Z,101848.13
2022-08-01T09:48:28.726Z,101843.75
2022-08-01T09:51:04.094Z,101844.63
2022-08-01T09:53:51.730Z,101851.31
2022-08-01T09:56:23.081Z,101848.63
2022-08-01T09:58:59.891Z,101846.78
2022-08-01T10:01:37.158Z,101848.47
2022-08-01T10:04:12.430Z,101843.97
2022-08-01T10:06:45.486Z,101854.59
2022-08-01T10:09:15.811Z,101852.22
2022-08-01T10:11:45.379Z,101852.78
2022-08-01T10:14:18.269Z,101850.38
2022-08-01T10:16:52.878Z,101845.44
2022-08-01T10:19:25.350Z,101845.84
2022-08-01T10:22:00.161Z,101830.50
2022-08-01T10:24:33.333Z,101845.28
2022-08-01T10:27:08.241Z,101822.59
2022-08-01T10:29:59.244Z,101847.91
2022-08-01T10:32:32.207Z,101851.97
2022-08-01T10:35:06.526Z,101844.22
2022-08-01T10:37:52.241Z,101863.69
2022-08-01T10:40:31.065Z,101856.28
2022-08-01T10:43:00.892Z,101862.34
2022-08-01T10:45:30.482Z,101853.16
2022-08-01T10:48:14.798Z,101857.28
2022-08-01T10:50:48.593Z,101857.13
2022-08-01T10:53:23.401Z,101783.69
2022-08-01T10:56:01.464Z,101847.78
2022-08-01T10:58:38.105Z,101837.63
2022-08-01T11:01:25.883Z,101874.69
2022-08-01T11:04:06.716Z,101870.66
2022-08-01T11:06:56.731Z,101862.59
2022-08-01T11:09:41.162Z,101841.44
2022-08-01T11:12:14.485Z,101869.03
2022-08-01T11:15:29.244Z,101781.91
2022-08-01T11:18:02.036Z,101869.63
2022-08-01T11:20:34.187Z,101880.44
2022-08-01T11:23:23.483Z,101880.97
2022-08-01T11:26:12.380Z,101872.91
2022-08-01T11:28:50.408Z,101865.78
2022-08-01T11:31:37.295Z,101861.28
2022-08-01T11:34:06.970Z,101861.44
2022-08-01T11:39:23.849Z,101858.81
2022-08-01T11:41:55.580Z,101862.28
2022-08-01T11:44:30.227Z,101865.38
2022-08-01T11:47:09.991Z,101864.44
2022-08-01T11:49:55.793Z,101867.34
2022-08-01T11:52:30.187Z,101866.59
2022-08-01T11:55:10.100Z,101868.03
2022-08-01T11:57:40.516Z,101879.50
2022-08-01T12:00:16.736Z,101867.84
2022-08-01T12:02:48.376Z,101867.84
2022-08-01T12:05:21.484Z,101871.38
2022-08-01T12:07:56.195Z,101878.56
2022-08-01T12:10:27.177Z,101873.25
2022-08-01T12:13:02.209Z,101879.81
2022-08-01T12:15:34.481Z,101883.09
2022-08-01T12:18:05.550Z,101889.50
2022-08-01T12:20:36.749Z,101875.28
2022-08-01T12:23:08.386Z,101877.41
2022-08-01T12:25:37.599Z,101871.69
2022-08-01T12:28:10.097Z,101874.59
2022-08-01T12:30:39.966Z,101868.97
2022-08-01T12:33:10.595Z,101870.75
2022-08-01T12:35:40.829Z,101875.66
2022-08-01T12:38:16.951Z,101873.13
2022-08-01T12:40:53.017Z,101786.75
2022-08-01T12:43:28.418Z,101875.25
2022-08-01T12:46:00.784Z,101874.47
2022-08-01T12:48:39.919Z,101870.59
2022-08-01T12:51:10.659Z,101873.91
2022-08-01T12:53:40.510Z,101873.50
2022-08-01T12:56:12.007Z,101857.97
2022-08-01T12:58:40.962Z,101872.56
2022-08-01T13:01:12.383Z,101875.88
2022-08-01T13:03:43.021Z,101879.53
2022-08-01T13:06:17.589Z,101875.81
2022-08-01T13:08:47.564Z,101874.88
2022-08-01T13:11:19.043Z,101869.06
2022-08-01T13:13:49.629Z,101877.59
2022-08-01T13:16:34.290Z,101770.16
2022-08-01T13:19:08.500Z,101869.56
2022-08-01T13:21:53.608Z,101858.97
2022-08-01T13:24:28.434Z,101862.59
2022-08-01T13:27:01.062Z,101864.53
2022-08-01T13:29:35.305Z,101855.53
2022-08-01T13:32:27.718Z,101855.47
2022-08-01T13:35:05.434Z,101856.81
2022-08-01T13:37:33.936Z,101851.81
2022-08-01T13:40:02.191Z,101861.00
2022-08-01T13:42:31.301Z,101841.66
2022-08-01T13:44:59.667Z,101846.41
2022-08-01T13:47:31.955Z,101840.94
2022-08-01T13:50:03.707Z,101841.91
2022-08-01T13:52:34.319Z,101839.28
2022-08-01T13:55:03.328Z,101837.28
2022-08-01T13:57:39.402Z,101828.09
2022-08-01T14:00:10.829Z,101833.22
2022-08-01T14:02:42.199Z,101837.25
2022-08-01T14:05:10.972Z,101739.03
2022-08-01T14:07:41.393Z,101830.25
2022-08-01T14:10:19.872Z,101827.00
2022-08-01T14:12:49.543Z,101823.31
2022-08-01T14:15:36.897Z,101833.09
2022-08-01T14:18:07.348Z,101831.47
2022-08-01T14:20:36.062Z,101824.28
2022-08-01T14:23:06.347Z,101816.25
2022-08-01T14:26:03.262Z,101825.72
2022-08-01T14:28:28.363Z,101808.34
2022-08-01T14:30:57.467Z,101814.16
2022-08-01T14:33:26.073Z,101812.44
2022-08-01T14:36:05.090Z,101817.41
2022-08-01T14:38:46.416Z,101819.53
2022-08-01T14:41:15.590Z,101815.19
2022-08-01T14:43:43.928Z,101824.66
2022-08-01T14:46:13.522Z,101832.28
2022-08-01T14:48:42.474Z,101826.94
2022-08-01T14:51:11.411Z,101821.66
2022-08-01T14:53:41.548Z,101825.72
2022-08-01T14:56:15.522Z,101842.44
2022-08-01T14:58:44.055Z,101847.34
2022-08-01T15:01:12.364Z,101847.94
2022-08-01T15:03:41.706Z,101846.38
2022-08-01T15:06:12.205Z,101840.94
2022-08-01T15:08:40.341Z,101838.84
2022-08-01T15:11:09.644Z,101834.63
2022-08-01T15:13:42.385Z,101810.59
2022-08-01T15:16:12.114Z,101833.69
2022-08-01T15:18:43.072Z,101833.22
2022-08-01T15:21:17.301Z,101837.97
2022-08-01T15:23:49.261Z,101840.25
2022-08-01T15:26:17.567Z,101826.16
2022-08-01T15:28:47.287Z,101823.31
2022-08-01T15:31:15.686Z,101836.25
2022-08-01T15:33:43.930Z,101817.75
2022-08-01T15:36:15.208Z,101812.88
2022-08-01T15:38:43.780Z,101816.72
2022-08-01T15:41:12.187Z,101814.00
2022-08-01T15:43:43.958Z,101814.81
2022-08-01T15:46:14.602Z,101808.34
2022-08-01T15:48:42.908Z,101815.13
2022-08-01T15:51:11.315Z,101821.72
2022-08-01T15:53:40.160Z,101804.75
2022-08-01T15:56:08.502Z,101807.25
2022-08-01T15:58:36.850Z,101810.56
2022-08-01T16:01:05.161Z,101803.63
2022-08-01T16:03:34.938Z,101806.59
2022-08-01T16:06:03.386Z,101806.56
2022-08-01T16:08:31.843Z,101803.31
2022-08-01T16:11:00.141Z,101800.44
2022-08-01T16:13:28.475Z,101801.91
2022-08-01T16:15:56.782Z,101800.84
2022-08-01T16:18:25.058Z,101808.97
2022-08-01T16:20:54.737Z,101804.44
2022-08-01T16:23:23.053Z,101804.41
2022-08-01T16:25:51.640Z,101810.03
2022-08-01T16:28:20.897Z,101809.50
2022-08-01T16:31:01.349Z,101801.47
2022-08-01T16:33:42.872Z,101800.09
2022-08-01T16:36:19.810Z,101799.91
2022-08-01T16:40:47.194Z,101802.22
2022-08-01T16:43:17.050Z,101795.75
2022-08-01T16:45:45.782Z,101803.72
2022-08-01T16:48:17.394Z,101795.88
2022-08-01T16:50:49.364Z,101803.56
2022-08-01T16:53:19.482Z,101803.16
2022-08-01T16:55:51.102Z,101802.63
2022-08-01T16:58:27.779Z,101795.09
2022-08-01T17:01:52.612Z,101797.56
2022-08-01T17:03:52.454Z,101799.06
2022-08-01T17:06:22.617Z,101801.31
2022-08-01T17:08:51.149Z,101789.75
2022-08-01T17:11:20.849Z,101801.97
2022-08-01T17:13:49.356Z,101791.72
2022-08-01T17:16:17.706Z,101797.38
2022-08-01T17:18:46.116Z,101800.78
2022-08-01T17:21:14.501Z,101794.31
2022-08-01T17:23:42.767Z,101801.38
2022-08-01T17:26:11.378Z,101794.38
2022-08-01T17:28:41.086Z,101795.00
2022-08-01T17:31:10.541Z,101793.66
2022-08-01T17:33:46.143Z,101800.69
2022-08-01T17:36:17.795Z,101796.34
2022-08-01T17:38:46.118Z,101806.03
2022-08-01T17:41:14.660Z,101801.72
2022-08-01T17:43:44.614Z,101792.41
2022-08-01T17:46:12.964Z,101794.44
2022-08-01T17:48:41.267Z,101796.47
2022-08-01T17:51:09.543Z,101797.13
2022-08-01T17:53:55.741Z,101789.00
2022-08-01T17:56:27.111Z,101795.22
2022-08-01T17:58:57.902Z,101793.59
2022-08-01T18:01:27.426Z,101789.94
2022-08-01T18:03:57.456Z,101771.72
2022-08-01T18:06:27.509Z,101780.41
2022-08-01T18:08:59.736Z,101782.44
2022-08-01T18:11:37.343Z,101778.03
2022-08-01T18:14:07.473Z,101774.00
2022-08-01T18:16:35.824Z,101779.09
2022-08-01T18:19:06.597Z,101774.63
2022-08-01T18:21:38.556Z,101781.41
2022-08-01T18:24:09.875Z,101786.88
2022-08-01T18:26:38.189Z,101783.00
2022-08-01T18:29:07.970Z,101776.44
2022-08-01T18:31:36.394Z,101787.06
2022-08-01T18:34:04.747Z,101791.59
2022-08-01T18:36:34.479Z,101789.84
2022-08-01T18:39:10.119Z,101788.16
2022-08-01T18:41:40.443Z,101791.06
2022-08-01T18:44:10.385Z,101780.44
2022-08-01T18:46:39.809Z,101789.22
2022-08-01T18:49:10.720Z,101792.00
2022-08-01T18:51:44.399Z,101779.88
2022-08-01T18:54:14.716Z,101780.94
2022-08-01T18:56:43.288Z,101806.97
2022-08-01T18:59:13.898Z,101807.25
2022-08-01T19:01:42.116Z,101806.34
2022-08-01T19:04:11.096Z,101798.94
2022-08-01T19:06:40.387Z,101804.22
2022-08-01T19:09:09.245Z,101807.41
2022-08-01T19:11:38.684Z,101802.75
2022-08-01T19:14:07.057Z,101810.00
2022-08-01T19:16:36.847Z,101798.66
2022-08-01T19:19:09.679Z,101812.84
2022-08-01T19:21:44.350Z,101812.13
2022-08-01T19:24:23.602Z,101804.19
2022-08-01T19:26:55.311Z,101809.84
2022-08-01T19:29:27.389Z,101801.72
2022-08-01T19:32:06.782Z,101799.69
2022-08-01T19:34:44.115Z,101806.03
2022-08-01T19:37:13.305Z,101811.75
2022-08-01T19:39:45.671Z,101807.19
2022-08-01T19:42:15.004Z,101706.44
2022-08-01T19:44:45.727Z,101810.84
2022-08-01T19:47:16.918Z,101811.78
2022-08-01T19:49:45.423Z,101813.94
2022-08-01T19:52:16.861Z,101804.94
2022-08-01T19:54:46.857Z,101802.06
2022-08-01T19:57:16.778Z,101810.97
2022-08-01T19:59:47.567Z,101810.41
2022-08-01T20:02:20.771Z,101808.94
2022-08-01T20:04:50.163Z,101816.25
2022-08-01T20:07:18.605Z,101817.38
2022-08-01T20:09:50.714Z,101810.25
2022-08-01T20:12:23.587Z,101824.72
2022-08-01T20:14:53.818Z,101818.56
2022-08-01T20:17:25.054Z,101818.72
2022-08-01T20:19:54.230Z,101807.47
2022-08-01T20:22:29.283Z,101823.72
2022-08-01T20:25:00.985Z,101818.09
2022-08-01T20:27:33.108Z,101812.94
2022-08-01T20:30:02.470Z,101813.44
2022-08-01T20:32:35.896Z,101806.94
2022-08-01T20:35:06.522Z,101816.72
2022-08-01T20:38:06.427Z,101811.56
2022-08-01T20:40:28.307Z,101809.13
2022-08-01T20:42:57.599Z,101795.03
2022-08-01T20:45:27.640Z,101687.84
2022-08-01T20:47:59.504Z,101807.41
2022-08-01T20:50:52.418Z,101808.75
2022-08-01T20:53:23.661Z,101804.16
2022-08-01T20:56:05.407Z,101804.25
2022-08-01T20:58:47.546Z,101714.31
2022-08-01T21:01:22.304Z,101793.94
2022-08-01T21:04:09.551Z,101782.88
2022-08-01T21:06:40.281Z,101793.13
2022-08-01T21:09:08.640Z,101796.88
2022-08-01T21:11:44.469Z,101791.94
2022-08-01T21:14:15.491Z,101791.34
2022-08-01T21:16:52.020Z,101794.69
2022-08-01T21:19:28.832Z,101792.72
2022-08-01T21:22:09.974Z,101795.91
2022-08-01T21:24:58.306Z,101792.44
2022-08-01T21:27:33.035Z,101782.03
2022-08-01T21:30:06.271Z,101794.59
2022-08-01T21:32:36.124Z,101795.53
2022-08-01T21:35:16.482Z,101787.78
2022-08-01T21:37:52.193Z,101778.59
2022-08-01T21:40:26.284Z,101777.44
2022-08-01T21:42:55.654Z,101764.00
2022-08-01T21:45:25.943Z,101789.03
2022-08-01T21:47:55.438Z,101795.31
2022-08-01T21:50:25.953Z,101796.81
2022-08-01T21:53:11.556Z,101793.28
2022-08-01T21:55:53.138Z,101790.66
2022-08-01T21:58:35.771Z,101788.09
2022-08-01T22:01:11.633Z,101786.34
2022-08-01T22:03:47.248Z,101782.09
2022-08-01T22:06:21.254Z,101767.53
2022-08-01T22:08:52.802Z,101764.66
2022-08-01T22:11:24.999Z,101731.00
2022-08-01T22:13:56.016Z,101763.72
2022-08-01T22:16:26.974Z,101769.69
2022-08-01T22:18:56.194Z,101748.06
2022-08-01T22:21:28.695Z,101764.84
2022-08-01T22:23:59.094Z,101751.59
2022-08-01T22:26:29.636Z,101759.59
2022-08-01T22:28:58.314Z,101772.22
2022-08-01T22:31:27.485Z,101763.84
2022-08-01T22:33:56.977Z,101734.69
2022-08-01T22:36:28.863Z,101767.22
2022-08-01T22:38:57.888Z,101760.16
2022-08-01T22:42:01.698Z,101780.81
2022-08-01T22:44:27.862Z,101758.41
2022-08-01T22:47:05.560Z,101753.78
2022-08-01T22:49:40.536Z,101756.63
2022-08-01T22:52:19.016Z,101748.84
2022-08-01T22:54:52.854Z,101742.97
2022-08-01T22:57:31.350Z,101742.09
2022-08-01T23:00:03.600Z,101747.13
2022-08-01T23:02:35.712Z,101737.31
2022-08-01T23:05:07.560Z,101738.91
2022-08-01T23:07:45.988Z,101724.56
2022-08-01T23:10:14.663Z,101749.94
2022-08-01T23:12:45.480Z,101749.34
2022-08-01T23:15:14.695Z,101751.00
2022-08-01T23:17:44.503Z,101745.50
2022-08-01T23:20:13.819Z,101740.72
2022-08-01T23:22:44.337Z,101742.66
2022-08-01T23:25:15.246Z,101735.31
2022-08-01T23:27:51.572Z,101720.03
2022-08-01T23:30:35.537Z,101729.34
2022-08-01T23:33:04.098Z,101730.84
2022-08-01T23:35:38.731Z,101715.84
2022-08-01T23:38:10.205Z,101725.97
2022-08-01T23:40:39.673Z,101726.47
2022-08-01T23:43:16.564Z,101701.41
2022-08-01T23:46:03.746Z,101719.59
2022-08-01T23:48:34.788Z,101725.66
2022-08-01T23:51:03.500Z,101725.00
2022-08-01T23:53:33.694Z,101719.78
2022-08-01T23:56:04.826Z,101723.84
2022-08-01T23:58:33.526Z,101720.19
